createdAt,value
2023-03-05T00:00:42.703Z,1022.30
2023-03-05T00:01:42.690Z,1022.31
2023-03-05T00:02:42.780Z,1022.32
2023-03-05T00:03:42.695Z,1022.33
2023-03-05T00:04:42.650Z,1022.35
2023-03-05T00:05:42.623Z,1022.35
2023-03-05T00:06:42.623Z,1022.28
2023-03-05T00:07:42.634Z,1022.27
2023-03-05T00:08:42.592Z,1022.29
2023-03-05T00:09:42.592Z,1022.29
2023-03-05T00:10:42.569Z,1022.24
2023-03-05T00:11:42.565Z,1022.16
2023-03-05T00:12:42.640Z,1022.22
2023-03-05T00:13:42.533Z,1022.21
2023-03-05T00:14:42.519Z,1022.20
2023-03-05T00:15:42.544Z,1022.20
2023-03-05T00:16:42.485Z,1022.27
2023-03-05T00:17:42.493Z,1022.25
2023-03-05T00:18:42.455Z,1022.20
2023-03-05T00:19:42.451Z,1022.19
2023-03-05T00:20:42.436Z,1022.16
2023-03-05T00:21:42.424Z,1022.18
2023-03-05T00:22:42.432Z,1022.17
2023-03-05T00:23:42.454Z,1022.17
2023-03-05T00:24:42.382Z,1022.16
2023-03-05T00:25:42.362Z,1022.18
2023-03-05T00:26:42.359Z,1022.14
2023-03-05T00:27:42.342Z,1022.15
2023-03-05T00:28:42.347Z,1022.15
2023-03-05T00:29:42.320Z,1022.12
2023-03-05T00:30:42.312Z,1022.11
2023-03-05T00:31:42.290Z,1022.12
2023-03-05T00:32:42.298Z,1022.09
2023-03-05T00:33:42.263Z,1022.10
2023-03-05T00:34:42.258Z,1022.06
2023-03-05T00:35:42.282Z,1022.06
2023-03-05T00:36:42.226Z,1022.01
2023-03-05T00:37:42.228Z,1022.03
2023-03-05T00:38:42.202Z,1022.00
2023-03-05T00:39:42.184Z,1022.01
2023-03-05T00:40:42.272Z,1022.03
2023-03-05T00:41:42.156Z,1022.03
2023-03-05T00:42:42.186Z,1022.01
2023-03-05T00:43:42.158Z,1021.98
2023-03-05T00:44:42.147Z,1022.04
2023-03-05T00:45:42.111Z,1022.00
2023-03-05T00:46:42.170Z,1022.02
2023-03-05T00:47:42.110Z,1021.99
2023-03-05T00:48:42.101Z,1021.95
2023-03-05T00:49:42.060Z,1021.94
2023-03-05T00:50:42.050Z,1021.92
2023-03-05T00:51:42.032Z,1021.92
2023-03-05T00:52:42.020Z,1021.94
2023-03-05T00:53:42.082Z,1021.96
2023-03-05T00:54:42.004Z,1021.92
2023-03-05T00:55:41.981Z,1021.89
2023-03-05T00:56:41.976Z,1021.88
2023-03-05T00:57:41.964Z,1021.88
2023-03-05T00:58:41.980Z,1021.84
2023-03-05T00:59:41.923Z,1021.85
2023-03-05T01:00:41.921Z,1021.84
2023-03-05T01:01:41.947Z,1021.81
2023-03-05T01:02:41.908Z,1021.86
2023-03-05T01:03:41.872Z,1021.83
2023-03-05T01:04:41.864Z,1021.78
2023-03-05T01:05:41.866Z,1021.77
2023-03-05T01:06:41.869Z,1021.78
2023-03-05T01:07:41.833Z,1021.76
2023-03-05T01:08:41.805Z,1021.74
2023-03-05T01:09:41.781Z,1021.75
2023-03-05T01:10:41.777Z,1021.77
2023-03-05T01:11:41.760Z,1021.77
2023-03-05T01:12:41.769Z,1021.77
2023-03-05T01:13:41.730Z,1021.79
2023-03-05T01:14:41.736Z,1021.80
2023-03-05T01:15:41.700Z,1021.77
2023-03-05T01:16:41.698Z,1021.80
2023-03-05T01:17:41.689Z,1021.77
2023-03-05T01:18:41.673Z,1021.80
2023-03-05T01:19:41.664Z,1021.80
2023-03-05T01:20:41.640Z,1021.78
2023-03-05T01:21:41.624Z,1021.75
2023-03-05T01:22:41.632Z,1021.78
2023-03-05T01:23:41.621Z,1021.80
2023-03-05T01:24:41.605Z,1021.77
2023-03-05T01:25:41.572Z,1021.74
2023-03-05T01:26:41.554Z,1021.75
2023-03-05T01:27:41.553Z,1021.76
2023-03-05T01:28:41.551Z,1021.75
2023-03-05T01:29:41.530Z,1021.78
2023-03-05T01:30:41.498Z,1021.72
2023-03-05T01:31:41.504Z,1021.78
2023-03-05T01:32:41.580Z,1021.76
2023-03-05T01:33:41.462Z,1021.71
2023-03-05T01:34:41.469Z,1021.70
2023-03-05T01:35:41.553Z,1021.70
2023-03-05T01:36:41.427Z,1021.65
2023-03-05T01:37:41.465Z,1021.68
2023-03-05T01:38:41.434Z,1021.65
2023-03-05T01:39:41.383Z,1021.65
2023-03-05T01:40:41.369Z,1021.64
2023-03-05T01:41:41.355Z,1021.67
2023-03-05T01:42:41.350Z,1021.66
2023-03-05T01:43:41.349Z,1021.59
2023-03-05T01:44:41.334Z,1021.59
2023-03-05T01:45:41.335Z,1021.58
2023-03-05T01:46:41.290Z,1021.59
2023-03-05T01:47:41.282Z,1021.58
2023-03-05T01:48:41.270Z,1021.57
2023-03-05T01:49:41.284Z,1021.57
2023-03-05T01:50:41.249Z,1021.56
2023-03-05T01:51:41.223Z,1021.57
2023-03-05T01:52:41.217Z,1021.53
2023-03-05T01:53:41.200Z,1021.53
2023-03-05T01:54:41.202Z,1021.49
2023-03-05T01:55:41.170Z,1021.51
2023-03-05T01:56:41.159Z,1021.50
2023-03-05T01:57:41.146Z,1021.45
2023-03-05T01:58:41.150Z,1021.49
2023-03-05T01:59:41.136Z,1021.46
2023-03-05T02:00:41.152Z,1021.48
2023-03-05T02:01:41.111Z,1021.43
2023-03-05T02:02:41.087Z,1021.44
2023-03-05T02:03:41.107Z,1021.36
2023-03-05T02:04:41.076Z,1021.37
2023-03-05T02:05:41.049Z,1021.36
2023-03-05T02:06:41.033Z,1021.38
2023-03-05T02:07:41.014Z,1021.35
2023-03-05T02:08:41.007Z,1021.34
2023-03-05T02:09:41.015Z,1021.33
2023-03-05T02:10:40.985Z,1021.28
2023-03-05T02:11:40.973Z,1021.30
2023-03-05T02:12:40.955Z,1021.27
2023-03-05T02:13:40.943Z,1021.25
2023-03-05T02:14:40.929Z,1021.28
2023-03-05T02:15:40.940Z,1021.27
2023-03-05T02:16:40.925Z,1021.22
2023-03-05T02:17:40.903Z,1021.23
2023-03-05T02:18:40.882Z,1021.13
2023-03-05T02:19:40.870Z,1021.15
2023-03-05T02:20:40.873Z,1021.14
2023-03-05T02:21:40.845Z,1021.10
2023-03-05T02:22:40.832Z,1021.10
2023-03-05T02:23:40.822Z,1021.05
2023-03-05T02:24:40.809Z,1021.10
2023-03-05T02:25:40.827Z,1021.08
2023-03-05T02:26:40.773Z,1021.03
2023-03-05T02:27:40.766Z,1021.06
2023-03-05T02:28:40.756Z,1021.04
2023-03-05T02:29:40.742Z,1021.02
2023-03-05T02:30:40.744Z,1021.01
2023-03-05T02:31:40.781Z,1020.99
2023-03-05T02:32:40.722Z,1020.98
2023-03-05T02:33:40.688Z,1021.00
2023-03-05T02:34:40.682Z,1021.01
2023-03-05T02:35:40.760Z,1020.94
2023-03-05T02:36:40.645Z,1021.00
2023-03-05T02:37:40.640Z,1021.02
2023-03-05T02:38:40.640Z,1020.99
2023-03-05T02:39:40.612Z,1021.03
2023-03-05T02:40:40.612Z,1021.06
2023-03-05T02:41:40.590Z,1021.06
2023-03-05T02:42:40.572Z,1021.03
2023-03-05T02:43:40.577Z,1021.03
2023-03-05T02:44:40.566Z,1021.02
2023-03-05T02:45:40.583Z,1020.99
2023-03-05T02:46:40.515Z,1020.99
2023-03-05T02:47:40.521Z,1020.96
2023-03-05T02:48:40.515Z,1020.98
2023-03-05T02:49:40.481Z,1020.94
2023-03-05T02:50:40.471Z,1020.97
2023-03-05T02:51:40.463Z,1020.95
2023-03-05T02:52:40.460Z,1020.94
2023-03-05T02:53:40.461Z,1020.93
2023-03-05T02:54:40.420Z,1020.94
2023-03-05T02:55:40.426Z,1020.95
2023-03-05T02:56:40.395Z,1020.91
2023-03-05T02:57:40.393Z,1020.93
2023-03-05T02:58:40.363Z,1020.92
2023-03-05T02:59:40.394Z,1020.86
2023-03-05T03:00:40.359Z,1020.88
2023-03-05T03:01:40.395Z,1020.86
2023-03-05T03:02:40.321Z,1020.91
2023-03-05T03:03:40.305Z,1020.89
2023-03-05T03:04:40.304Z,1020.83
2023-03-05T03:05:40.324Z,1020.89
2023-03-05T03:06:40.260Z,1020.85
2023-03-05T03:07:40.255Z,1020.79
2023-03-05T03:08:40.231Z,1020.82
2023-03-05T03:09:40.227Z,1020.82
2023-03-05T03:10:40.211Z,1020.77
2023-03-05T03:11:40.217Z,1020.79
2023-03-05T03:12:40.190Z,1020.75
2023-03-05T03:13:40.175Z,1020.75
2023-03-05T03:14:40.155Z,1020.71
2023-03-05T03:15:40.143Z,1020.76
2023-03-05T03:16:40.221Z,1020.69
2023-03-05T03:17:40.123Z,1020.70
2023-03-05T03:18:40.123Z,1020.67
2023-03-05T03:19:40.101Z,1020.63
2023-03-05T03:20:40.086Z,1020.66
2023-03-05T03:21:40.095Z,1020.68
2023-03-05T03:22:40.054Z,1020.70
2023-03-05T03:23:40.049Z,1020.65
2023-03-05T03:24:40.043Z,1020.66
2023-03-05T03:25:40.040Z,1020.59
2023-03-05T03:26:40.039Z,1020.59
2023-03-05T03:27:40.008Z,1020.60
2023-03-05T03:28:40.004Z,1020.56
2023-03-05T03:29:39.976Z,1020.61
2023-03-05T03:30:40.002Z,1020.56
2023-03-05T03:31:39.951Z,1020.54
2023-03-05T03:32:39.936Z,1020.54
2023-03-05T03:33:40.005Z,1020.48
2023-03-05T03:34:39.903Z,1020.48
2023-03-05T03:35:39.902Z,1020.46
2023-03-05T03:36:39.880Z,1020.47
2023-03-05T03:37:39.886Z,1020.44
2023-03-05T03:38:39.858Z,1020.46
2023-03-05T03:39:39.872Z,1020.46
2023-03-05T03:40:39.834Z,1020.44
2023-03-05T03:41:39.816Z,1020.45
2023-03-05T03:42:39.805Z,1020.45
2023-03-05T03:43:39.803Z,1020.40
2023-03-05T03:44:39.807Z,1020.40
2023-03-05T03:45:39.770Z,1020.37
2023-03-05T03:46:39.776Z,1020.40
2023-03-05T03:47:39.747Z,1020.38
2023-03-05T03:48:39.728Z,1020.34
2023-03-05T03:49:39.721Z,1020.35
2023-03-05T03:50:39.697Z,1020.38
2023-03-05T03:51:39.715Z,1020.34
2023-03-05T03:52:39.678Z,1020.35
2023-03-05T03:53:39.664Z,1020.36
2023-03-05T03:54:39.659Z,1020.35
2023-03-05T03:55:39.646Z,1020.35
2023-03-05T03:56:39.639Z,1020.33
2023-03-05T03:57:39.641Z,1020.33
2023-03-05T03:58:39.648Z,1020.27
2023-03-05T03:59:39.629Z,1020.36
2023-03-05T04:00:39.591Z,1020.36
2023-03-05T04:01:39.608Z,1020.33
2023-03-05T04:02:39.599Z,1020.33
2023-03-05T04:03:39.577Z,1020.38
2023-03-05T04:04:39.639Z,1020.33
2023-03-05T04:05:39.529Z,1020.38
2023-03-05T04:06:39.523Z,1020.39
2023-03-05T04:07:39.484Z,1020.29
2023-03-05T04:08:39.469Z,1020.34
2023-03-05T04:09:39.458Z,1020.30
2023-03-05T04:10:39.446Z,1020.37
2023-03-05T04:11:39.440Z,1020.33
2023-03-05T04:12:39.440Z,1020.33
2023-03-05T04:13:39.402Z,1020.31
2023-03-05T04:14:39.395Z,1020.33
2023-03-05T04:15:39.397Z,1020.34
2023-03-05T04:16:39.365Z,1020.28
2023-03-05T04:17:39.386Z,1020.29
2023-03-05T04:18:39.348Z,1020.30
2023-03-05T04:19:39.338Z,1020.33
2023-03-05T04:20:39.313Z,1020.30
2023-03-05T04:21:39.309Z,1020.30
2023-03-05T04:22:39.347Z,1020.32
2023-03-05T04:23:39.285Z,1020.25
2023-03-05T04:24:39.287Z,1020.28
2023-03-05T04:25:39.258Z,1020.29
2023-03-05T04:26:39.240Z,1020.23
2023-03-05T04:27:39.245Z,1020.25
2023-03-05T04:28:39.219Z,1020.29
2023-03-05T04:29:39.205Z,1020.23
2023-03-05T04:30:39.185Z,1020.17
2023-03-05T04:31:39.172Z,1020.19
2023-03-05T04:32:39.233Z,1020.17
2023-03-05T04:33:39.151Z,1020.17
2023-03-05T04:34:39.131Z,1020.17
2023-03-05T04:35:39.149Z,1020.19
2023-03-05T04:36:39.103Z,1020.18
2023-03-05T04:37:39.120Z,1020.18
2023-03-05T04:38:39.096Z,1020.16
2023-03-05T04:39:39.068Z,1020.18
2023-03-05T04:40:39.055Z,1020.15
2023-03-05T04:41:39.046Z,1020.09
2023-03-05T04:42:39.041Z,1020.11
2023-03-05T04:43:39.020Z,1020.13
2023-03-05T04:44:39.000Z,1020.13
2023-03-05T04:45:38.990Z,1020.13
2023-03-05T04:46:39.011Z,1020.13
2023-03-05T04:47:38.984Z,1020.08
2023-03-05T04:48:38.946Z,1020.11
2023-03-05T04:49:38.935Z,1020.07
2023-03-05T04:50:38.925Z,1020.11
2023-03-05T04:51:38.914Z,1020.06
2023-03-05T04:52:38.922Z,1020.10
2023-03-05T04:53:38.879Z,1020.04
2023-03-05T04:54:38.873Z,1020.07
2023-03-05T04:55:38.861Z,1020.05
2023-03-05T04:56:38.856Z,1020.02
2023-03-05T04:57:38.853Z,1020.01
2023-03-05T04:58:38.818Z,1020.03
2023-03-05T04:59:38.831Z,1020.02
2023-03-05T05:00:38.802Z,1020.01
2023-03-05T05:01:38.866Z,1020.02
2023-03-05T05:02:38.789Z,1020.04
2023-03-05T05:03:38.763Z,1020.06
2023-03-05T05:04:38.763Z,1020.05
2023-03-05T05:05:38.729Z,1020.09
2023-03-05T05:06:38.723Z,1020.09
2023-03-05T05:07:38.708Z,1020.09
2023-03-05T05:08:38.690Z,1020.05
2023-03-05T05:09:38.700Z,1020.02
2023-03-05T05:10:38.666Z,1020.03
2023-03-05T05:11:38.672Z,1020.00
2023-03-05T05:12:38.661Z,1020.02
2023-03-05T05:13:38.633Z,1020.02
2023-03-05T05:14:38.632Z,1020.00
2023-03-05T05:15:38.608Z,1019.96
2023-03-05T05:16:38.591Z,1020.02
2023-03-05T05:17:38.604Z,1019.98
2023-03-05T05:18:38.570Z,1019.98
2023-03-05T05:19:38.595Z,1019.99
2023-03-05T05:20:38.547Z,1020.02
2023-03-05T05:21:38.540Z,1019.97
2023-03-05T05:22:38.529Z,1019.95
2023-03-05T05:23:38.508Z,1019.96
2023-03-05T05:24:38.488Z,1019.98
2023-03-05T05:25:38.477Z,1019.95
2023-03-05T05:26:38.460Z,1019.96
2023-03-05T05:27:38.472Z,1019.97
2023-03-05T05:28:38.441Z,1020.02
2023-03-05T05:29:38.444Z,1019.99
2023-03-05T05:30:38.416Z,1019.97
2023-03-05T05:31:38.415Z,1019.99
2023-03-05T05:32:39.506Z,1019.95
2023-03-05T05:33:38.383Z,1019.98
2023-03-05T05:34:38.378Z,1019.99
2023-03-05T05:35:38.441Z,1019.98
2023-03-05T05:36:38.333Z,1019.95
2023-03-05T05:37:38.331Z,1019.95
2023-03-05T05:38:38.316Z,1019.93
2023-03-05T05:39:38.269Z,1019.94
2023-03-05T05:40:38.230Z,1019.92
2023-03-05T05:41:38.226Z,1019.90
2023-03-05T05:42:38.209Z,1019.91
2023-03-05T05:43:44.193Z,1019.93
2023-03-05T05:44:38.198Z,1019.90
2023-03-05T05:45:38.384Z,1019.90
2023-03-05T05:46:38.269Z,1019.91
2023-03-05T05:47:38.150Z,1019.93
2023-03-05T05:48:38.129Z,1019.89
2023-03-05T05:49:38.145Z,1019.92
2023-03-05T05:50:38.119Z,1019.89
2023-03-05T05:51:38.098Z,1019.90
2023-03-05T05:52:38.091Z,1019.90
2023-03-05T05:53:38.085Z,1019.88
2023-03-05T05:54:38.076Z,1019.90
2023-03-05T05:55:38.052Z,1019.85
2023-03-05T05:56:38.030Z,1019.93
2023-03-05T05:57:38.073Z,1019.86
2023-03-05T05:58:38.003Z,1019.83
2023-03-05T05:59:37.992Z,1019.78
2023-03-05T06:00:37.985Z,1019.78
2023-03-05T06:01:38.008Z,1019.76
2023-03-05T06:02:38.115Z,1019.81
2023-03-05T06:03:37.951Z,1019.81
2023-03-05T06:04:37.937Z,1019.84
2023-03-05T06:05:37.937Z,1019.76
2023-03-05T06:06:37.905Z,1019.77
2023-03-05T06:07:37.940Z,1019.76
2023-03-05T06:08:37.880Z,1019.78
2023-03-05T06:09:37.886Z,1019.73
2023-03-05T06:10:37.842Z,1019.72
2023-03-05T06:11:37.839Z,1019.75
2023-03-05T06:12:37.855Z,1019.70
2023-03-05T06:13:37.823Z,1019.70
2023-03-05T06:14:37.809Z,1019.70
2023-03-05T06:15:37.793Z,1019.72
2023-03-05T06:16:37.851Z,1019.72
2023-03-05T06:17:37.774Z,1019.72
2023-03-05T06:18:37.744Z,1019.70
2023-03-05T06:19:37.763Z,1019.68
2023-03-05T06:20:37.721Z,1019.72
2023-03-05T06:21:37.714Z,1019.69
2023-03-05T06:22:37.704Z,1019.70
2023-03-05T06:23:37.703Z,1019.66
2023-03-05T06:24:37.725Z,1019.68
2023-03-05T06:25:37.666Z,1019.62
2023-03-05T06:26:37.651Z,1019.64
2023-03-05T06:27:37.635Z,1019.63
2023-03-05T06:28:37.625Z,1019.63
2023-03-05T06:29:37.648Z,1019.62
2023-03-05T06:30:37.680Z,1019.62
2023-03-05T06:31:37.588Z,1019.65
2023-03-05T06:32:37.633Z,1019.61
2023-03-05T06:33:37.592Z,1019.62
2023-03-05T06:34:37.573Z,1019.60
2023-03-05T06:35:37.590Z,1019.59
2023-03-05T06:36:37.549Z,1019.59
2023-03-05T06:37:37.510Z,1019.61
2023-03-05T06:38:37.526Z,1019.60
2023-03-05T06:39:37.481Z,1019.58
2023-03-05T06:40:37.470Z,1019.55
2023-03-05T06:41:37.450Z,1019.59
2023-03-05T06:42:37.490Z,1019.58
2023-03-05T06:43:37.450Z,1019.61
2023-03-05T06:44:37.455Z,1019.62
2023-03-05T06:45:37.451Z,1019.63
2023-03-05T06:46:37.406Z,1019.61
2023-03-05T06:47:37.384Z,1019.61
2023-03-05T06:48:37.379Z,1019.66
2023-03-05T06:49:37.369Z,1019.65
2023-03-05T06:50:37.340Z,1019.65
2023-03-05T06:51:37.324Z,1019.66
2023-03-05T06:52:37.320Z,1019.67
2023-03-05T06:53:37.317Z,1019.63
2023-03-05T06:54:37.301Z,1019.69
2023-03-05T06:55:37.537Z,1019.64
2023-03-05T06:56:37.285Z,1019.65
2023-03-05T06:57:37.250Z,1019.69
2023-03-05T06:58:37.256Z,1019.69
2023-03-05T06:59:37.251Z,1019.70
2023-03-05T07:00:37.212Z,1019.64
2023-03-05T07:01:37.325Z,1019.62
2023-03-05T07:02:37.210Z,1019.59
2023-03-05T07:03:37.188Z,1019.61
2023-03-05T07:04:37.178Z,1019.59
2023-03-05T07:05:37.150Z,1019.65
2023-03-05T07:06:37.140Z,1019.61
2023-03-05T07:07:37.132Z,1019.60
2023-03-05T07:08:37.128Z,1019.64
2023-03-05T07:09:37.126Z,1019.60
2023-03-05T07:10:37.081Z,1019.64
2023-03-05T07:11:37.078Z,1019.60
2023-03-05T07:12:37.084Z,1019.59
2023-03-05T07:13:37.060Z,1019.60
2023-03-05T07:14:37.038Z,1019.60
2023-03-05T07:15:37.153Z,1019.57
2023-03-05T07:16:37.064Z,1019.57
2023-03-05T07:17:36.994Z,1019.58
2023-03-05T07:18:36.978Z,1019.62
2023-03-05T07:19:36.959Z,1019.58
2023-03-05T07:20:36.987Z,1019.60
2023-03-05T07:21:39.569Z,1019.60
2023-03-05T07:22:36.921Z,1019.61
2023-03-05T07:23:36.929Z,1019.59
2023-03-05T07:24:36.916Z,1019.57
2023-03-05T07:25:36.887Z,1019.60
2023-03-05T07:26:36.881Z,1019.57
2023-03-05T07:27:36.883Z,1019.55
2023-03-05T07:28:36.851Z,1019.51
2023-03-05T07:29:36.868Z,1019.50
2023-03-05T07:30:36.901Z,1019.47
2023-03-05T07:31:36.944Z,1019.49
2023-03-05T07:32:36.874Z,1019.49
2023-03-05T07:33:36.772Z,1019.48
2023-03-05T07:34:36.774Z,1019.45
2023-03-05T07:35:36.978Z,1019.44
2023-03-05T07:36:36.742Z,1019.42
2023-03-05T07:37:36.729Z,1019.47
2023-03-05T07:38:36.740Z,1019.47
2023-03-05T07:39:36.720Z,1019.44
2023-03-05T07:40:36.708Z,1019.42
2023-03-05T07:41:36.675Z,1019.45
2023-03-05T07:42:36.719Z,1019.44
2023-03-05T07:43:36.678Z,1019.48
2023-03-05T07:44:36.631Z,1019.45
2023-03-05T07:45:36.677Z,1019.47
2023-03-05T07:46:36.696Z,1019.39
2023-03-05T07:47:36.630Z,1019.40
2023-03-05T07:48:36.612Z,1019.39
2023-03-05T07:49:36.605Z,1019.44
2023-03-05T07:50:36.708Z,1019.42
2023-03-05T07:51:36.564Z,1019.40
2023-03-05T07:52:36.540Z,1019.39
2023-03-05T07:53:36.525Z,1019.38
2023-03-05T07:54:36.514Z,1019.40
2023-03-05T07:55:36.535Z,1019.41
2023-03-05T07:56:36.536Z,1019.43
2023-03-05T07:57:36.478Z,1019.33
2023-03-05T07:58:36.478Z,1019.42
2023-03-05T07:59:36.447Z,1019.38
2023-03-05T08:00:36.449Z,1019.36
2023-03-05T08:01:36.431Z,1019.35
2023-03-05T08:02:36.494Z,1019.34
2023-03-05T08:03:36.413Z,1019.31
2023-03-05T08:04:36.383Z,1019.27
2023-03-05T08:05:36.387Z,1019.27
2023-03-05T08:06:36.365Z,1019.26
2023-03-05T08:07:36.358Z,1019.26
2023-03-05T08:08:36.339Z,1019.25
2023-03-05T08:09:36.315Z,1019.28
2023-03-05T08:10:36.328Z,1019.26
2023-03-05T08:11:36.296Z,1019.26
2023-03-05T08:12:36.292Z,1019.27
2023-03-05T08:13:36.268Z,1019.26
2023-03-05T08:14:36.266Z,1019.26
2023-03-05T08:15:36.315Z,1019.26
2023-03-05T08:16:36.237Z,1019.21
2023-03-05T08:17:36.214Z,1019.23
2023-03-05T08:18:36.225Z,1019.22
2023-03-05T08:19:36.197Z,1019.24
2023-03-05T08:20:36.192Z,1019.21
2023-03-05T08:21:36.170Z,1019.21
2023-03-05T08:22:36.159Z,1019.21
2023-03-05T08:23:36.162Z,1019.23
2023-03-05T08:24:36.138Z,1019.24
2023-03-05T08:25:36.116Z,1019.20
2023-03-05T08:26:36.112Z,1019.25
2023-03-05T08:27:36.088Z,1019.19
2023-03-05T08:28:36.112Z,1019.18
2023-03-05T08:29:36.074Z,1019.17
2023-03-05T08:30:36.053Z,1019.18
2023-03-05T08:31:36.147Z,1019.17
2023-03-05T08:32:36.120Z,1019.20
2023-03-05T08:33:36.024Z,1019.18
2023-03-05T08:34:36.015Z,1019.16
2023-03-05T08:35:36.012Z,1019.13
2023-03-05T08:36:36.009Z,1019.15
2023-03-05T08:37:34.956Z,1019.13
2023-03-05T08:38:35.971Z,1019.06
2023-03-05T08:39:35.948Z,1019.07
2023-03-05T08:40:35.928Z,1019.06
2023-03-05T08:41:35.912Z,1019.03
2023-03-05T08:42:35.916Z,1019.08
2023-03-05T08:43:35.880Z,1019.09
2023-03-05T08:44:35.907Z,1019.12
2023-03-05T08:45:35.859Z,1019.08
2023-03-05T08:46:35.929Z,1019.08
2023-03-05T08:47:35.832Z,1019.08
2023-03-05T08:48:35.868Z,1019.05
2023-03-05T08:49:35.886Z,1019.06
2023-03-05T08:50:37.528Z,1019.07
2023-03-05T08:51:35.809Z,1019.10
2023-03-05T08:52:35.778Z,1019.13
2023-03-05T08:53:35.758Z,1019.12
2023-03-05T08:54:35.795Z,1019.12
2023-03-05T08:55:35.781Z,1019.12
2023-03-05T08:56:35.730Z,1019.13
2023-03-05T08:57:35.719Z,1019.11
2023-03-05T08:58:35.719Z,1019.11
2023-03-05T08:59:35.705Z,1019.12
2023-03-05T09:00:35.849Z,1019.14
2023-03-05T09:01:35.695Z,1019.04
2023-03-05T09:02:35.674Z,1019.06
2023-03-05T09:03:35.636Z,1019.10
2023-03-05T09:04:35.648Z,1019.12
2023-03-05T09:05:37.215Z,1019.09
2023-03-05T09:06:35.592Z,1019.13
2023-03-05T09:07:35.577Z,1019.06
2023-03-05T09:08:35.581Z,1019.09
2023-03-05T09:09:35.568Z,1019.05
2023-03-05T09:10:35.546Z,1019.07
2023-03-05T09:11:35.536Z,1019.06
2023-03-05T09:12:35.516Z,1019.06
2023-03-05T09:13:35.536Z,1019.01
2023-03-05T09:14:35.633Z,1019.02
2023-03-05T09:15:35.505Z,1019.03
2023-03-05T09:16:35.682Z,1019.01
2023-03-05T09:17:35.455Z,1019.05
2023-03-05T09:18:35.462Z,1019.07
2023-03-05T09:19:35.440Z,1019.02
2023-03-05T09:20:35.466Z,1019.03
2023-03-05T09:21:35.422Z,1019.06
2023-03-05T09:22:35.393Z,1019.01
2023-03-05T09:23:35.376Z,1019.02
2023-03-05T09:24:35.364Z,1018.94
2023-03-05T09:25:35.381Z,1019.00
2023-03-05T09:26:35.355Z,1018.98
2023-03-05T09:27:35.350Z,1018.94
2023-03-05T09:28:35.351Z,1018.88
2023-03-05T09:29:35.817Z,1018.90
2023-03-05T09:30:35.292Z,1018.91
2023-03-05T09:31:35.335Z,1018.88
2023-03-05T09:32:35.497Z,1018.87
2023-03-05T09:33:35.246Z,1018.84
2023-03-05T09:34:35.272Z,1018.79
2023-03-05T09:35:35.281Z,1018.80
2023-03-05T09:36:35.218Z,1018.81
2023-03-05T09:37:35.208Z,1018.83
2023-03-05T09:38:35.225Z,1018.80
2023-03-05T09:39:35.197Z,1018.77
2023-03-05T09:40:35.476Z,1018.81
2023-03-05T09:41:35.138Z,1018.73
2023-03-05T09:42:35.187Z,1018.77
2023-03-05T09:43:35.169Z,1018.70
2023-03-05T09:44:35.180Z,1018.71
2023-03-05T09:45:35.155Z,1018.73
2023-03-05T09:46:35.114Z,1018.72
2023-03-05T09:47:35.067Z,1018.70
2023-03-05T09:48:35.081Z,1018.64
2023-03-05T09:49:35.039Z,1018.68
2023-03-05T09:50:35.094Z,1018.68
2023-03-05T09:51:35.180Z,1018.68
2023-03-05T09:52:35.008Z,1018.66
2023-03-05T09:53:35.011Z,1018.67
2023-03-05T09:54:34.984Z,1018.71
2023-03-05T09:55:36.305Z,1018.69
2023-03-05T09:56:34.989Z,1018.65
2023-03-05T09:57:34.963Z,1018.64
2023-03-05T09:58:35.040Z,1018.67
2023-03-05T09:59:34.930Z,1018.70
2023-03-05T10:00:34.917Z,1018.72
2023-03-05T10:01:35.038Z,1018.70
2023-03-05T10:02:34.895Z,1018.70
2023-03-05T10:03:34.902Z,1018.68
2023-03-05T10:04:34.886Z,1018.66
2023-03-05T10:05:34.836Z,1018.68
2023-03-05T10:06:34.937Z,1018.70
2023-03-05T10:07:34.818Z,1018.66
2023-03-05T10:08:34.842Z,1018.68
2023-03-05T10:09:36.858Z,1018.65
2023-03-05T10:10:34.934Z,1018.65
2023-03-05T10:11:34.754Z,1018.66
2023-03-05T10:12:34.757Z,1018.60
2023-03-05T10:13:34.744Z,1018.63
2023-03-05T10:14:34.760Z,1018.61
2023-03-05T10:15:34.706Z,1018.61
2023-03-05T10:16:34.777Z,1018.58
2023-03-05T10:17:34.757Z,1018.62
2023-03-05T10:18:34.688Z,1018.58
2023-03-05T10:19:34.667Z,1018.55
2023-03-05T10:20:34.678Z,1018.59
2023-03-05T10:21:34.649Z,1018.56
2023-03-05T10:22:34.673Z,1018.54
2023-03-05T10:23:34.618Z,1018.50
2023-03-05T10:24:34.609Z,1018.51
2023-03-05T10:25:34.586Z,1018.52
2023-03-05T10:26:34.593Z,1018.54
2023-03-05T10:27:34.690Z,1018.51
2023-03-05T10:28:34.564Z,1018.52
2023-03-05T10:29:34.547Z,1018.52
2023-03-05T10:30:34.526Z,1018.51
2023-03-05T10:31:34.574Z,1018.53
2023-03-05T10:32:34.575Z,1018.44
2023-03-05T10:33:34.477Z,1018.50
2023-03-05T10:34:34.484Z,1018.42
2023-03-05T10:35:34.474Z,1018.47
2023-03-05T10:36:34.627Z,1018.42
2023-03-05T10:37:34.425Z,1018.45
2023-03-05T10:38:34.459Z,1018.43
2023-03-05T10:39:34.406Z,1018.42
2023-03-05T10:40:34.435Z,1018.42
2023-03-05T10:41:34.447Z,1018.37
2023-03-05T10:42:34.380Z,1018.41
2023-03-05T10:43:34.373Z,1018.40
2023-03-05T10:44:34.461Z,1018.41
2023-03-05T10:45:34.490Z,1018.40
2023-03-05T10:46:34.355Z,1018.33
2023-03-05T10:47:34.306Z,1018.31
2023-03-05T10:48:34.404Z,1018.30
2023-03-05T10:49:34.283Z,1018.31
2023-03-05T10:50:34.294Z,1018.26
2023-03-05T10:51:34.297Z,1018.25
2023-03-05T10:52:34.238Z,1018.27
2023-03-05T10:53:34.240Z,1018.24
2023-03-05T10:54:34.212Z,1018.26
2023-03-05T10:55:34.224Z,1018.28
2023-03-05T10:56:34.192Z,1018.23
2023-03-05T10:57:34.182Z,1018.23
2023-03-05T10:58:34.155Z,1018.25
2023-03-05T10:59:34.188Z,1018.20
2023-03-05T11:00:34.187Z,1018.18
2023-03-05T11:01:34.211Z,1018.15
2023-03-05T11:02:34.194Z,1018.16
2023-03-05T11:03:34.095Z,1018.21
2023-03-05T11:04:34.081Z,1018.19
2023-03-05T11:05:34.081Z,1018.10
2023-03-05T11:06:34.065Z,1018.08
2023-03-05T11:07:34.042Z,1018.10
2023-03-05T11:08:34.039Z,1018.06
2023-03-05T11:09:34.009Z,1018.04
2023-03-05T11:10:34.010Z,1018.08
2023-03-05T11:11:34.010Z,1017.99
2023-03-05T11:12:33.976Z,1017.97
2023-03-05T11:13:33.968Z,1018.02
2023-03-05T11:14:33.960Z,1017.94
2023-03-05T11:15:34.488Z,1017.91
2023-03-05T11:16:34.125Z,1017.98
2023-03-05T11:17:34.073Z,1017.97
2023-03-05T11:18:34.248Z,1017.93
2023-03-05T11:19:33.881Z,1017.91
2023-03-05T11:20:33.867Z,1017.92
2023-03-05T11:21:33.911Z,1017.93
2023-03-05T11:22:33.863Z,1017.88
2023-03-05T11:23:34.019Z,1017.97
2023-03-05T11:24:33.871Z,1017.91
2023-03-05T11:25:33.810Z,1017.89
2023-03-05T11:26:33.893Z,1017.94
2023-03-05T11:27:33.803Z,1017.90
2023-03-05T11:28:34.147Z,1017.84
2023-03-05T11:29:33.898Z,1017.85
2023-03-05T11:30:33.761Z,1017.87
2023-03-05T11:31:33.753Z,1017.88
2023-03-05T11:32:33.914Z,1017.89
2023-03-05T11:33:33.841Z,1017.89
2023-03-05T11:34:34.105Z,1017.86
2023-03-05T11:35:34.085Z,1017.86
2023-03-05T11:36:34.011Z,1017.84
2023-03-05T11:37:34.441Z,1017.82
2023-03-05T11:38:35.038Z,1017.79
2023-03-05T11:39:33.756Z,1017.81
2023-03-05T11:40:33.809Z,1017.80
2023-03-05T11:41:33.890Z,1017.76
2023-03-05T11:42:33.708Z,1017.71
2023-03-05T11:43:33.688Z,1017.77
2023-03-05T11:44:33.572Z,1017.70
2023-03-05T11:45:33.550Z,1017.74
2023-03-05T11:46:33.673Z,1017.64
2023-03-05T11:47:33.606Z,1017.64
2023-03-05T11:49:25.977Z,1017.62
2023-03-05T11:50:26.956Z,1017.65
2023-03-05T11:51:26.927Z,1017.55
2023-03-05T11:52:26.927Z,1017.56
2023-03-05T11:53:26.918Z,1017.52
2023-03-05T11:54:26.910Z,1017.50
2023-03-05T11:55:26.886Z,1017.48
2023-03-05T11:56:26.871Z,1017.50
2023-03-05T11:57:26.887Z,1017.46
2023-03-05T11:58:26.879Z,1017.46
2023-03-05T11:59:26.837Z,1017.44
2023-03-05T12:00:26.824Z,1017.45
2023-03-05T12:01:26.803Z,1017.42
2023-03-05T12:02:26.833Z,1017.46
2023-03-05T12:03:26.820Z,1017.43
2023-03-05T12:04:26.781Z,1017.38
2023-03-05T12:05:26.754Z,1017.41
2023-03-05T12:06:26.754Z,1017.36